Time;durP1;ratioP1;P1;durP2;ratioP2;P2;SDS_P1;SDS_P2;PMS_P1;PMS_P2;Temp;Humidity;BMP_temperature;BMP_pressure;BME280_temperature;BME280_humidity;BME280_pressure;Samples;Min_cycle;Max_cycle;Signal;HPM_P1;HPM_P2
2021/09/20 05:52:22;;;;;;;10.35;8.43;;;;;;;;;;10478032;28;20460;-85
2021/09/20 05:57:23;;;;;;;11.52;9.35;;;;;;;;;;10481769;28;20032;-86
2021/09/20 06:02:23;;;;;;;7.55;6.60;;;;;;;;;;10474647;28;20040;-86
2021/09/20 06:07:24;;;;;;;10.15;8.18;;;;;;;;;;10475214;28;20029;-86
2021/09/20 06:12:25;;;;;;;;;;;;;;;;;;10475903;28;20025;-86
2021/09/20 06:17:33;;;;;;;5.95;5.40;;;;;;;;;;10462051;28;20004;-86
2021/09/20 06:22:34;;;;;;;8.68;7.75;;;;;;;;;;10461284;28;20033;-86
2021/09/20 06:55:49;;;;;;;7.78;6.10;;;;;;;;;;10423968;28;20014;-89
2021/09/20 07:00:54;;;;;;;8.95;7.65;;;;;;;;;;10408659;28;20041;-87
2021/09/20 07:06:45;;;;;;;7.82;4.90;;;;;;;;;;10347600;28;20022;-87
2021/09/20 10:40:25;;;;;;;5.80;5.20;;;;;;;;;;10391103;28;20041;-85
2021/09/20 12:56:02;;;;;;;5.43;4.13;;;;;;;;;;10426236;28;20061;-86
2021/09/20 13:01:04;;;;;;;4.32;3.70;;;;;;;;;;10455946;28;20045;-85
2021/09/20 13:06:10;;;;;;;4.68;4.20;;;;;;;;;;10443384;28;20124;-86
2021/09/20 13:11:12;;;;;;;3.95;3.60;;;;;;;;;;10444491;28;20045;-86
2021/09/20 13:16:13;;;;;;;4.32;3.65;;;;;;;;;;10445419;28;20406;-86
2021/09/20 13:21:24;;;;;;;3.72;3.42;;;;;;;;;;10448217;28;20033;-86
2021/09/20 13:26:32;;;;;;;4.97;3.70;;;;;;;;;;10448325;28;20033;-86
2021/09/20 13:31:34;;;;;;;3.67;3.00;;;;;;;;;;10457037;28;20029;-86
2021/09/20 13:36:46;;;;;;;7.57;3.55;;;;;;;;;;10451021;28;20095;-86
2021/09/20 13:41:53;;;;;;;4.53;3.30;;;;;;;;;;10446123;28;20029;-86
2021/09/20 13:46:56;;;;;;;5.28;3.00;;;;;;;;;;10446185;28;20025;-85
2021/09/20 13:51:57;;;;;;;3.75;2.35;;;;;;;;;;10445977;28;20502;-86
2021/09/20 13:57:01;;;;;;;4.30;2.47;;;;;;;;;;10450847;28;20049;-86
2021/09/20 14:02:17;;;;;;;4.35;2.40;;;;;;;;;;10452442;28;20044;-86
2021/09/20 14:07:30;;;;;;;6.72;2.75;;;;;;;;;;10444534;28;20466;-86
2021/09/20 14:12:41;;;;;;;2.65;2.42;;;;;;;;;;10450454;28;20113;-86
2021/09/20 14:17:46;;;;;;;2.80;2.40;;;;;;;;;;10451259;28;20025;-86
2021/09/20 14:22:53;;;;;;;2.72;2.40;;;;;;;;;;10454135;28;20118;-86
2021/09/20 14:27:55;;;;;;;2.40;1.98;;;;;;;;;;10459581;28;20044;-86
2021/09/20 15:06:50;;;;;;;3.85;2.53;;;;;;;;;;10516712;28;20068;-86
2021/09/20 15:12:22;;;;;;;3.55;2.50;;;;;;;;;;10560994;28;20131;-86
2021/09/20 15:17:28;;;;;;;4.82;3.13;;;;;;;;;;10519807;28;20097;-85
2021/09/20 15:22:43;;;;;;;4.85;2.25;;;;;;;;;;10550335;28;20075;-86
2021/09/20 15:27:48;;;;;;;2.97;2.35;;;;;;;;;;10542328;28;20405;-86
2021/09/20 15:32:52;;;;;;;3.40;2.40;;;;;;;;;;10536053;28;20024;-86
2021/09/20 15:38:09;;;;;;;3.78;2.08;;;;;;;;;;10532307;28;20123;-86
2021/09/20 15:43:56;;;;;;;3.38;1.90;;;;;;;;;;10530714;28;20055;-86
2021/09/20 15:48:58;;;;;;;3.08;1.83;;;;;;;;;;10509312;28;20182;-87
2021/09/20 15:53:59;;;;;;;3.88;1.80;;;;;;;;;;10532102;28;20122;-86
2021/09/20 15:59:00;;;;;;;4.20;2.55;;;;;;;;;;10533108;28;20047;-85
2021/09/20 16:04:02;;;;;;;4.13;2.50;;;;;;;;;;10532130;28;20497;-86
2021/09/20 16:09:42;;;;;;;3.60;2.10;;;;;;;;;;10555302;28;20051;-86
2021/09/20 16:14:43;;;;;;;4.35;2.03;;;;;;;;;;10542278;28;20031;-85
2021/09/20 16:19:45;;;;;;;3.83;1.98;;;;;;;;;;10533861;28;20162;-85
2021/09/20 16:24:46;;;;;;;3.13;2.03;;;;;;;;;;10535067;28;20050;-84
2021/09/20 16:29:54;;;;;;;2.20;1.67;;;;;;;;;;10534359;28;20043;-87
2021/09/20 16:35:17;;;;;;;3.15;1.80;;;;;;;;;;10526401;28;20036;-84
2021/09/20 16:40:26;;;;;;;2.05;1.60;;;;;;;;;;10665560;22;20152;-87
2021/09/20 16:46:01;;;;;;;5.20;1.67;;;;;;;;;;10474324;28;20040;-86
2021/09/20 16:51:02;;;;;;;4.53;3.50;;;;;;;;;;10459188;28;20060;-86
2021/09/20 16:56:06;;;;;;;3.85;2.58;;;;;;;;;;10462361;28;20068;-86
2021/09/20 17:01:17;;;;;;;3.33;1.90;;;;;;;;;;10460985;28;20447;-87
2021/09/20 17:11:39;;;;;;;4.97;1.90;;;;;;;;;;10463446;28;20029;-86
2021/09/20 17:16:45;;;;;;;3.22;1.90;;;;;;;;;;10465321;28;20037;-86
2021/09/20 17:21:46;;;;;;;2.40;1.88;;;;;;;;;;10459203;28;20037;-87
2021/09/20 17:26:54;;;;;;;4.25;2.70;;;;;;;;;;10484752;28;20055;-86
2021/09/20 17:31:57;;;;;;;3.90;2.67;;;;;;;;;;10466262;28;20032;-86
2021/09/20 17:36:59;;;;;;;4.43;2.58;;;;;;;;;;10458967;28;20395;-86
2021/09/20 17:42:10;;;;;;;6.25;3.15;;;;;;;;;;10496313;28;20120;-85
2021/09/20 17:47:13;;;;;;;5.05;2.67;;;;;;;;;;10487779;28;20045;-87
2021/09/20 17:52:55;;;;;;;6.70;3.60;;;;;;;;;;10471474;28;20047;-87
2021/09/20 17:57:56;;;;;;;5.18;3.28;;;;;;;;;;10462098;28;20120;-86
2021/09/20 18:03:21;;;;;;;5.55;3.13;;;;;;;;;;10476331;28;20029;-85
2021/09/20 18:08:22;;;;;;;5.13;2.75;;;;;;;;;;10458141;28;20045;-86
2021/09/20 18:13:33;;;;;;;3.92;2.53;;;;;;;;;;10481561;28;20043;-86
2021/09/20 18:18:41;;;;;;;5.32;2.22;;;;;;;;;;10487053;28;20059;-86
2021/09/20 18:23:47;;;;;;;3.70;2.63;;;;;;;;;;10486044;28;20052;-86
